createdAt,value
2022-08-23T00:00:30.573Z,17.32
2022-08-23T00:05:38.675Z,17.34
2022-08-23T00:10:40.671Z,17.33
2022-08-23T00:15:42.716Z,17.34
2022-08-23T00:20:44.654Z,17.38
2022-08-23T00:25:46.604Z,17.41
2022-08-23T00:30:49.431Z,17.38
2022-08-23T00:35:51.747Z,17.36
2022-08-23T00:40:54.470Z,17.37
2022-08-23T00:46:51.457Z,17.37
2022-08-23T00:51:59.485Z,17.33
2022-08-23T00:57:05.908Z,17.27
2022-08-23T01:02:08.377Z,17.24
2022-08-23T01:07:34.127Z,17.19
2022-08-23T01:12:40.852Z,17.18
2022-08-23T01:17:50.467Z,17.16
2022-08-23T01:22:59.917Z,17.13
2022-08-23T01:28:02.039Z,17.08
2022-08-23T01:33:06.251Z,17.04
2022-08-23T01:38:10.304Z,17.02
2022-08-23T01:43:13.598Z,17.04
2022-08-23T01:48:17.441Z,17.12
2022-08-23T01:53:19.395Z,17.13
2022-08-23T01:58:24.659Z,17.22
2022-08-23T02:03:28.246Z,17.23
2022-08-23T02:08:49.003Z,17.05
2022-08-23T02:13:58.328Z,16.97
2022-08-23T02:19:08.137Z,16.91
2022-08-23T02:24:14.413Z,16.84
2022-08-23T02:29:18.560Z,16.78
2022-08-23T02:34:20.992Z,16.70
2022-08-23T02:39:23.716Z,16.63
2022-08-23T02:44:25.649Z,16.57
2022-08-23T02:49:29.260Z,16.54
2022-08-23T02:54:32.985Z,16.52
2022-08-23T02:59:35.178Z,16.53
2022-08-23T03:04:37.391Z,16.55
2022-08-23T03:09:39.451Z,16.57
2022-08-23T03:14:42.493Z,16.58
2022-08-23T03:19:46.195Z,16.57
2022-08-23T03:24:48.385Z,16.58
2022-08-23T03:29:50.564Z,16.62
2022-08-23T03:34:53.665Z,16.63
2022-08-23T03:39:55.962Z,16.62
2022-08-23T03:45:02.341Z,16.57
2022-08-23T03:50:05.964Z,16.55
2022-08-23T03:55:08.767Z,16.56
2022-08-23T04:00:12.619Z,16.54
2022-08-23T04:05:26.853Z,16.50
2022-08-23T04:10:34.954Z,16.50
2022-08-23T04:15:37.054Z,16.55
2022-08-23T04:20:40.075Z,16.57
2022-08-23T04:25:45.204Z,16.57
2022-08-23T04:30:47.640Z,16.59
2022-08-23T04:35:50.035Z,16.61
2022-08-23T04:41:12.744Z,16.66
2022-08-23T04:46:16.080Z,16.69
2022-08-23T04:51:19.114Z,16.72
2022-08-23T04:56:23.100Z,16.71
2022-08-23T05:01:27.239Z,16.74
2022-08-23T05:06:31.038Z,16.82
2022-08-23T05:11:33.039Z,16.90
2022-08-23T05:16:35.382Z,16.88
2022-08-23T05:21:45.033Z,16.82
2022-08-23T05:26:54.437Z,16.82
2022-08-23T05:31:57.213Z,16.83
2022-08-23T05:37:05.755Z,16.87
2022-08-23T05:42:21.371Z,16.89
2022-08-23T05:47:26.625Z,16.92
2022-08-23T05:52:42.907Z,16.93
2022-08-23T05:57:51.612Z,16.87
2022-08-23T06:02:54.692Z,16.88
2022-08-23T06:07:59.916Z,16.96
2022-08-23T06:13:03.912Z,17.02
2022-08-23T06:18:05.930Z,17.12
2022-08-23T06:23:09.166Z,17.19
2022-08-23T06:28:15.222Z,17.33
2022-08-23T06:33:24.224Z,17.44
2022-08-23T06:38:54.107Z,17.53
2022-08-23T06:44:15.434Z,17.61
2022-08-23T06:49:58.094Z,17.53
2022-08-23T06:55:32.086Z,17.64
2022-08-23T07:00:56.772Z,17.88
2022-08-23T07:06:11.781Z,18.35
2022-08-23T07:11:14.904Z,18.52
2022-08-23T07:16:17.890Z,18.33
2022-08-23T07:21:20.239Z,18.25
2022-08-23T07:26:25.298Z,18.14
2022-08-23T07:31:30.847Z,18.06
2022-08-23T07:36:34.673Z,18.05
2022-08-23T07:41:40.496Z,18.07
2022-08-23T07:46:44.666Z,17.98
2022-08-23T07:51:49.784Z,17.97
2022-08-23T07:56:53.279Z,18.07
2022-08-23T08:02:16.098Z,18.07
2022-08-23T08:07:21.496Z,18.02
2022-08-23T08:12:32.147Z,18.12
2022-08-23T08:17:38.180Z,18.37
2022-08-23T08:22:58.348Z,18.77
2022-08-23T08:28:19.723Z,19.18
2022-08-23T08:33:21.821Z,19.66
2022-08-23T08:38:38.767Z,20.15
2022-08-23T08:44:14.642Z,20.08
2022-08-23T08:49:46.189Z,19.82
2022-08-23T08:54:56.223Z,19.94
2022-08-23T09:00:09.251Z,20.20
2022-08-23T09:06:06.986Z,20.51
2022-08-23T09:11:50.964Z,20.42
2022-08-23T09:17:08.164Z,20.23
2022-08-23T09:22:31.051Z,20.19
2022-08-23T09:27:39.899Z,20.32
2022-08-23T09:32:51.692Z,20.24
2022-08-23T09:38:07.312Z,20.22
2022-08-23T09:43:34.230Z,20.21
2022-08-23T09:48:56.098Z,20.14
2022-08-23T09:54:40.587Z,20.02
2022-08-23T09:59:51.417Z,20.22
2022-08-23T10:05:14.910Z,20.40
2022-08-23T10:10:39.225Z,20.55
2022-08-23T10:15:55.845Z,20.76
2022-08-23T10:21:26.701Z,20.79
2022-08-23T10:26:35.003Z,20.46
2022-08-23T10:31:41.683Z,20.30
2022-08-23T10:36:53.398Z,20.35
2022-08-23T10:42:07.978Z,21.01
2022-08-23T10:47:24.070Z,21.07
2022-08-23T10:52:34.361Z,20.93
2022-08-23T10:57:40.041Z,20.78
2022-08-23T11:02:55.295Z,20.73
2022-08-23T11:08:08.049Z,20.57
2022-08-23T11:13:16.717Z,20.37
2022-08-23T11:18:35.816Z,20.41
2022-08-23T11:23:58.078Z,20.75
2022-08-23T11:29:07.132Z,21.04
2022-08-23T11:34:29.751Z,21.22
2022-08-23T11:39:58.625Z,21.27
2022-08-23T11:45:49.101Z,21.23
2022-08-23T11:51:15.378Z,21.28
2022-08-23T11:56:44.465Z,21.21
2022-08-23T12:01:51.440Z,20.99
2022-08-23T12:07:01.338Z,21.01
2022-08-23T12:12:03.552Z,20.98
2022-08-23T12:17:12.220Z,21.06
2022-08-23T12:22:29.119Z,20.99
2022-08-23T12:33:45.895Z,20.73
2022-08-23T12:39:19.514Z,20.78
2022-08-23T12:44:34.080Z,20.71
2022-08-23T12:49:38.951Z,20.62
2022-08-23T12:54:50.463Z,20.65
2022-08-23T13:00:16.661Z,20.77
2022-08-23T13:05:27.083Z,20.82
2022-08-23T13:10:53.832Z,20.89
2022-08-23T13:16:33.300Z,21.05
2022-08-23T13:21:41.708Z,21.07
2022-08-23T13:26:45.099Z,21.07
2022-08-23T13:32:04.186Z,21.07
2022-08-23T13:37:29.705Z,20.90
2022-08-23T13:42:38.509Z,20.80
2022-08-23T13:47:56.996Z,20.79
2022-08-23T13:53:15.593Z,20.71
2022-08-23T13:58:37.666Z,20.67
2022-08-23T14:03:39.736Z,20.67
2022-08-23T14:08:41.975Z,20.64
2022-08-23T14:13:46.001Z,20.70
2022-08-23T14:24:11.087Z,20.53
2022-08-23T14:29:15.377Z,20.46
2022-08-23T14:34:20.871Z,20.39
2022-08-23T14:39:22.708Z,20.41
2022-08-23T14:44:27.927Z,20.46
2022-08-23T14:49:35.642Z,20.52
2022-08-23T14:54:37.648Z,20.66
2022-08-23T14:59:39.544Z,20.82
2022-08-23T15:04:42.395Z,20.97
2022-08-23T15:09:45.489Z,21.05
2022-08-23T15:14:49.955Z,21.11
2022-08-23T15:19:51.993Z,21.12
2022-08-23T15:24:53.806Z,21.13
2022-08-23T15:29:55.780Z,21.09
2022-08-23T15:34:58.824Z,20.96
2022-08-23T15:40:05.291Z,20.75
2022-08-23T15:45:15.725Z,20.65
2022-08-23T15:50:44.873Z,20.67
2022-08-23T15:55:50.785Z,20.53
2022-08-23T16:00:53.473Z,20.47
2022-08-23T16:05:56.956Z,20.41
2022-08-23T16:11:04.875Z,20.47
2022-08-23T16:16:26.253Z,20.48
2022-08-23T16:21:42.546Z,20.43
2022-08-23T16:26:45.417Z,20.38
2022-08-23T16:31:48.377Z,20.35
2022-08-23T16:37:04.553Z,20.25
2022-08-23T16:42:07.555Z,20.18
2022-08-23T16:47:14.648Z,20.10
2022-08-23T16:52:34.248Z,20.05
2022-08-23T16:57:40.849Z,20.06
2022-08-23T17:02:43.490Z,19.99
2022-08-23T17:07:47.759Z,19.89
2022-08-23T17:12:52.842Z,19.82
2022-08-23T17:18:14.769Z,19.81
2022-08-23T17:23:17.846Z,19.71
2022-08-23T17:28:22.373Z,19.74
2022-08-23T17:33:24.625Z,19.71
2022-08-23T17:38:36.829Z,19.63
2022-08-23T17:43:44.035Z,19.64
2022-08-23T17:48:49.871Z,19.59
2022-08-23T17:53:53.740Z,19.57
2022-08-23T17:58:56.770Z,19.48
2022-08-23T18:04:00.145Z,19.44
2022-08-23T18:09:08.562Z,19.34
2022-08-23T18:14:12.162Z,19.33
2022-08-23T18:19:26.973Z,19.36
2022-08-23T18:24:29.877Z,19.23
2022-08-23T18:29:32.956Z,19.18
2022-08-23T18:34:39.827Z,19.18
2022-08-23T18:39:45.099Z,19.22
2022-08-23T18:44:47.593Z,19.25
2022-08-23T18:49:49.904Z,19.30
2022-08-23T18:54:52.617Z,19.31
2022-08-23T18:59:54.914Z,19.38
2022-08-23T19:04:57.174Z,19.43
2022-08-23T19:10:01.280Z,19.44
2022-08-23T19:15:04.926Z,19.35
2022-08-23T19:20:09.147Z,19.31
2022-08-23T19:25:12.380Z,19.34
2022-08-23T19:30:17.459Z,19.40
2022-08-23T19:35:21.000Z,19.47
2022-08-23T19:40:24.257Z,19.40
2022-08-23T19:45:27.451Z,19.33
2022-08-23T19:50:40.776Z,19.31
2022-08-23T19:55:48.387Z,19.32
2022-08-23T20:00:51.904Z,19.29
2022-08-23T20:05:55.969Z,19.25
2022-08-23T20:10:58.733Z,19.26
2022-08-23T20:16:01.401Z,19.33
2022-08-23T20:21:18.663Z,19.34
2022-08-23T20:26:30.073Z,19.24
2022-08-23T20:31:37.389Z,19.14
2022-08-23T20:36:42.940Z,19.12
2022-08-23T20:41:50.761Z,19.14
2022-08-23T20:47:02.213Z,19.18
2022-08-23T20:52:09.598Z,19.21
2022-08-23T20:57:15.300Z,19.13
2022-08-23T21:02:31.497Z,19.09
2022-08-23T21:07:37.074Z,19.07
2022-08-23T21:12:40.751Z,19.09
2022-08-23T21:17:43.082Z,19.11
2022-08-23T21:22:53.566Z,19.14
2022-08-23T21:28:04.774Z,19.14
2022-08-23T21:33:07.483Z,19.14
2022-08-23T21:38:12.348Z,19.13
2022-08-23T21:43:17.219Z,19.15
2022-08-23T21:48:24.177Z,19.17
2022-08-23T21:53:30.672Z,19.18
2022-08-23T21:58:46.810Z,19.24
2022-08-23T22:03:58.832Z,19.30
2022-08-23T22:09:09.531Z,19.32
2022-08-23T22:14:16.573Z,19.40
2022-08-23T22:19:22.161Z,19.43
2022-08-23T22:24:26.155Z,19.35
2022-08-23T22:29:29.577Z,19.29
2022-08-23T22:34:31.566Z,19.25
2022-08-23T22:39:33.546Z,19.25
2022-08-23T22:44:35.457Z,19.23
2022-08-23T22:49:37.407Z,19.30
2022-08-23T22:54:39.331Z,19.32
2022-08-23T22:59:41.504Z,19.30
2022-08-23T23:04:43.597Z,19.31
2022-08-23T23:09:48.152Z,19.33
2022-08-23T23:14:50.027Z,19.38
2022-08-23T23:20:10.840Z,19.42
2022-08-23T23:25:12.854Z,19.45
2022-08-23T23:30:15.214Z,19.45
2022-08-23T23:35:17.128Z,19.45
2022-08-23T23:40:20.184Z,19.53
2022-08-23T23:45:26.310Z,19.62
2022-08-23T23:50:31.498Z,19.66
2022-08-23T23:55:33.510Z,19.66
